Time;durP1;ratioP1;P1;durP2;ratioP2;P2;SDS_P1;SDS_P2;PMS_P1;PMS_P2;Temp;Humidity;BMP_temperature;BMP_pressure;BME280_temperature;BME280_humidity;BME280_pressure;Samples;Min_cycle;Max_cycle;Signal;HPM_P1;HPM_P2
2022/07/25 00:01:25;;;;;;;2.93;2.63;;;14.10;99.90;13.50;100577;;;;586394;240;24037;-87
2022/07/25 00:03:50;;;;;;;4.43;2.80;;;14.10;99.90;13.50;100573;;;;589572;240;24040;-84
2022/07/25 00:06:19;;;;;;;4.10;3.80;;;14.10;99.90;13.50;100574;;;;585012;240;34742;-83
2022/07/25 00:08:46;;;;;;;3.20;2.87;;;14.10;99.90;13.50;100573;;;;599267;239;24052;-84
2022/07/25 00:11:14;;;;;;;3.23;2.90;;;14.10;99.90;13.50;100582;;;;590044;240;24067;-84
2022/07/25 00:13:42;;;;;;;3.87;2.70;;;14.10;99.90;13.50;100575;;;;599063;240;24034;-83
2022/07/25 00:16:12;;;;;;;3.40;3.10;;;14.10;99.90;13.50;100564;;;;586487;240;24098;-85
2022/07/25 00:18:40;;;;;;;3.00;2.60;;;14.10;99.90;13.50;100575;;;;599294;240;24038;-85
2022/07/25 00:21:08;;;;;;;3.47;3.17;;;14.10;99.90;13.50;100576;;;;599248;240;24095;-87
2022/07/25 00:23:36;;;;;;;2.97;2.77;;;14.10;99.90;13.40;100568;;;;590138;240;24057;-85
2022/07/25 00:26:07;;;;;;;5.43;2.53;;;14.10;99.90;13.40;100576;;;;590208;240;24060;-87
2022/07/25 00:28:36;;;;;;;2.73;2.50;;;14.00;99.90;13.40;100564;;;;589993;240;24066;-86
2022/07/25 00:31:01;;;;;;;3.00;2.80;;;14.00;99.90;13.40;100568;;;;599022;239;25080;-86
2022/07/25 00:33:30;;;;;;;3.33;2.80;;;14.00;99.90;13.30;100565;;;;599256;240;24106;-83
2022/07/25 00:36:03;;;;;;;3.00;2.70;;;13.90;99.90;13.30;100569;;;;599201;240;24079;-86
2022/07/25 00:38:30;;;;;;;3.27;2.27;;;13.90;99.90;13.30;100564;;;;589277;240;24082;-82
2022/07/25 00:40:57;;;;;;;2.53;2.43;;;13.90;99.90;13.30;100565;;;;586135;240;24079;-84
2022/07/25 00:43:26;;;;;;;3.03;2.60;;;13.90;99.90;13.30;100555;;;;586157;240;24042;-84
2022/07/25 00:45:51;;;;;;;3.00;2.77;;;13.90;99.90;13.20;100562;;;;589935;240;24045;-84
2022/07/25 00:48:22;;;;;;;2.70;2.50;;;13.80;99.90;13.20;100552;;;;601010;237;24035;-84
2022/07/25 00:50:50;;;;;;;2.63;2.40;;;13.80;99.90;13.20;100556;;;;599911;239;24064;-84
2022/07/25 00:53:17;;;;;;;3.50;2.43;;;13.80;99.90;13.20;100556;;;;587328;239;24025;-84
2022/07/25 00:55:42;;;;;;;2.93;2.63;;;13.80;99.90;13.10;100556;;;;590554;240;24031;-84
2022/07/25 00:58:10;;;;;;;2.87;2.67;;;13.80;99.90;13.10;100557;;;;590579;240;24030;-84
2022/07/25 01:00:38;;;;;;;3.03;2.60;;;13.80;99.90;13.10;100551;;;;599990;239;23997;-83
2022/07/25 01:03:10;;;;;;;7.13;3.10;;;13.70;99.90;13.10;100560;;;;600031;239;24113;-83
2022/07/25 01:05:34;;;;;;;2.37;2.17;;;13.70;99.90;13.00;100554;;;;590089;240;25114;-83
2022/07/25 01:08:05;;;;;;;2.70;2.50;;;13.70;99.90;13.00;100557;;;;599723;239;24007;-83
2022/07/25 01:10:35;;;;;;;4.03;2.40;;;13.70;99.90;13.00;100552;;;;599570;239;24017;-84
2022/07/25 01:13:05;;;;;;;3.05;2.83;;;13.60;99.90;13.00;100556;;;;585315;240;34754;-86
2022/07/25 01:15:31;;;;;;;4.87;2.93;;;13.60;99.90;12.90;100541;;;;590124;240;24050;-85
2022/07/25 01:17:56;;;;;;;3.40;2.80;;;13.50;99.90;13.00;100548;;;;589895;240;24093;-84
2022/07/25 01:20:27;;;;;;;6.10;2.40;;;13.60;99.90;12.90;100540;;;;599255;239;24028;-82
2022/07/25 01:22:52;;;;;;;2.50;2.30;;;13.60;99.90;12.90;100532;;;;586129;240;24018;-84
2022/07/25 01:25:23;;;;;;;3.07;2.17;;;13.60;99.90;13.00;100537;;;;598988;240;24058;-84
2022/07/25 01:27:49;;;;;;;2.70;2.17;;;13.60;99.90;13.00;100540;;;;586226;240;24017;-84
2022/07/25 01:30:17;;;;;;;4.13;2.20;;;13.60;99.90;13.00;100531;;;;599001;240;24092;-84
2022/07/25 01:32:45;;;;;;;2.77;2.27;;;13.60;99.90;12.90;100531;;;;589888;240;24068;-84
2022/07/25 01:35:16;;;;;;;2.27;2.07;;;13.60;99.90;12.90;100525;;;;589733;240;24036;-84
2022/07/25 01:37:40;;;;;;;3.37;2.43;;;13.50;99.90;12.90;100524;;;;589217;240;24047;-83
2022/07/25 01:40:12;;;;;;;4.37;2.17;;;13.50;99.90;12.90;100523;;;;589830;240;24032;-85
2022/07/25 01:42:36;;;;;;;2.17;2.07;;;13.50;99.90;12.80;100520;;;;585777;240;24030;-83
2022/07/25 01:45:04;;;;;;;3.07;2.13;;;13.50;99.90;12.80;100528;;;;590146;240;24028;-83
2022/07/25 01:47:32;;;;;;;1.97;1.87;;;13.50;99.90;12.80;100526;;;;586635;240;24070;-83
2022/07/25 01:50:00;;;;;;;2.17;2.07;;;13.50;99.90;12.80;100525;;;;590125;240;24009;-84
2022/07/25 01:52:28;;;;;;;2.50;2.30;;;13.50;99.90;12.80;100525;;;;599498;240;24076;-82
2022/07/25 01:54:59;;;;;;;2.07;1.97;;;13.50;99.90;12.80;100521;;;;599498;240;24032;-84
2022/07/25 01:57:24;;;;;;;2.80;1.77;;;13.50;99.90;12.80;100524;;;;589760;240;24002;-85
2022/07/25 01:59:52;;;;;;;2.40;2.20;;;13.40;99.90;12.80;100523;;;;600931;237;24011;-84
2022/07/25 02:02:23;;;;;;;2.17;1.80;;;13.40;99.90;12.80;100523;;;;600672;239;24020;-83
2022/07/25 02:04:48;;;;;;;2.13;1.97;;;13.50;99.90;12.80;100529;;;;590675;239;24060;-84
2022/07/25 02:07:19;;;;;;;2.47;2.27;;;13.50;99.90;12.80;100535;;;;600309;239;24049;-84
2022/07/25 02:09:43;;;;;;;2.80;2.40;;;13.50;99.90;12.80;100524;;;;586982;240;24029;-83
2022/07/25 02:12:11;;;;;;;5.67;2.20;;;13.50;99.90;12.90;100525;;;;599986;239;24085;-83
2022/07/25 02:14:39;;;;;;;2.83;2.60;;;13.50;99.90;12.90;100521;;;;600122;239;24084;-85
2022/07/25 02:17:07;;;;;;;3.40;2.30;;;13.50;99.90;12.90;100522;;;;599970;239;24004;-84
2022/07/25 02:19:35;;;;;;;2.37;2.23;;;13.50;99.90;12.90;100519;;;;586693;240;24043;-85
2022/07/25 02:22:06;;;;;;;3.77;2.60;;;13.50;99.90;12.90;100523;;;;590284;240;24066;-85
2022/07/25 02:24:31;;;;;;;2.53;2.33;;;13.50;99.90;12.90;100523;;;;599874;238;24065;-83
2022/07/25 02:26:59;;;;;;;4.33;2.30;;;13.50;99.90;12.90;100515;;;;600374;239;24051;-82
2022/07/25 02:29:27;;;;;;;3.60;2.37;;;13.50;99.90;12.80;100520;;;;591633;240;24032;-81
2022/07/25 02:31:55;;;;;;;3.13;2.80;;;13.50;99.90;12.80;100522;;;;600794;239;24089;-83
2022/07/25 02:34:23;;;;;;;2.53;2.40;;;13.50;99.90;12.80;100522;;;;601106;239;24061;-86
2022/07/25 02:36:50;;;;;;;2.87;2.67;;;13.50;99.90;12.90;100524;;;;601099;240;24066;-86
2022/07/25 02:39:22;;;;;;;6.73;2.93;;;13.50;99.90;12.90;100524;;;;600985;240;24048;-84
2022/07/25 02:41:46;;;;;;;5.33;2.53;;;13.50;99.90;12.90;100525;;;;591179;240;23984;-87
2022/07/25 02:44:16;;;;;;;2.87;2.67;;;13.50;99.90;12.90;100525;;;;601078;240;24024;-84
2022/07/25 02:46:43;;;;;;;3.63;3.10;;;13.50;99.90;12.90;100525;;;;599350;240;24085;-84
2022/07/25 02:49:11;;;;;;;4.17;2.57;;;13.50;99.90;12.90;100515;;;;599045;240;24068;-84
2022/07/25 02:51:41;;;;;;;3.63;2.97;;;13.50;99.90;12.90;100524;;;;599130;240;24060;-84
2022/07/25 02:54:09;;;;;;;3.17;2.90;;;13.50;99.90;12.90;100515;;;;599038;240;24092;-86
2022/07/25 02:56:37;;;;;;;3.30;3.00;;;13.50;99.90;13.00;100509;;;;589848;240;24026;-84
2022/07/25 02:59:05;;;;;;;3.10;2.77;;;13.60;99.90;13.00;100503;;;;599097;240;24067;-82
2022/07/25 03:01:33;;;;;;;3.20;2.90;;;13.70;99.90;13.10;100499;;;;599022;240;24066;-84
2022/07/25 03:04:00;;;;;;;3.23;2.93;;;13.70;99.90;13.20;100502;;;;589912;240;24027;-84
2022/07/25 03:06:29;;;;;;;3.63;3.33;;;13.80;99.90;13.20;100507;;;;599114;240;24036;-86
2022/07/25 03:08:57;;;;;;;3.40;3.10;;;13.80;99.90;13.30;100506;;;;589920;240;25057;-84
2022/07/25 03:11:24;;;;;;;8.57;3.00;;;13.60;99.90;13.40;100509;;;;591356;239;24040;-85
2022/07/25 03:13:53;;;;;;;3.67;2.93;;;14.20;99.90;13.60;100514;;;;600228;239;24041;-85
2022/07/25 03:16:21;;;;;;;3.30;2.80;;;14.20;99.90;13.70;100521;;;;600021;239;24040;-87
2022/07/25 03:18:49;;;;;;;4.20;2.90;;;14.20;99.90;13.90;100531;;;;590545;240;24010;-85
2022/07/25 03:21:17;;;;;;;4.97;2.90;;;14.50;99.90;14.00;100521;;;;599640;240;24024;-85
2022/07/25 03:23:45;;;;;;;3.37;3.07;;;14.60;99.90;14.10;100526;;;;599701;239;24063;-84
2022/07/25 03:26:13;;;;;;;3.37;3.13;;;14.70;99.90;14.20;100527;;;;589992;240;24013;-85
2022/07/25 03:28:47;;;;;;;3.53;2.97;;;14.80;99.90;14.30;100523;;;;590245;240;24057;-86
2022/07/25 03:31:10;;;;;;;2.93;2.73;;;14.90;99.90;14.50;100516;;;;589855;240;24118;-87
2022/07/25 03:33:38;;;;;;;3.50;3.20;;;15.00;99.90;14.60;100522;;;;599481;239;24118;-86
2022/07/25 03:36:05;;;;;;;3.00;2.80;;;15.10;99.90;14.70;100515;;;;599343;239;24013;-84
2022/07/25 03:38:33;;;;;;;3.57;3.07;;;15.30;99.90;14.80;100519;;;;590184;240;24008;-85
2022/07/25 03:41:01;;;;;;;4.43;3.30;;;15.40;99.90;15.00;100521;;;;586744;240;24064;-86
2022/07/25 03:43:30;;;;;;;3.13;2.90;;;15.70;99.90;15.10;100523;;;;590149;240;24027;-85
2022/07/25 03:45:58;;;;;;;4.60;2.90;;;15.70;99.90;15.50;100523;;;;590569;240;24011;-85
2022/07/25 03:48:26;;;;;;;3.07;2.77;;;16.00;99.90;16.40;100506;;;;599649;240;24149;-85
2022/07/25 03:50:58;;;;;;;2.90;2.70;;;16.80;99.90;17.40;100514;;;;599704;240;24013;-84
2022/07/25 03:53:24;;;;;;;3.97;2.83;;;18.60;99.90;18.10;100517;;;;599286;239;24020;-85
2022/07/25 03:55:52;;;;;;;3.20;2.73;;;18.60;99.90;18.60;100526;;;;586492;240;24070;-86
2022/07/25 03:58:20;;;;;;;2.70;2.50;;;19.20;99.90;18.90;100522;;;;599033;240;24045;-85
2022/07/25 04:00:48;;;;;;;3.00;2.77;;;19.50;99.90;19.70;100519;;;;598883;240;24065;-86
2022/07/25 04:03:15;;;;;;;3.70;2.60;;;20.30;99.90;20.60;100518;;;;599067;240;24032;-85
2022/07/25 04:05:43;;;;;;;2.57;2.37;;;21.10;99.90;21.60;100510;;;;598997;240;24093;-85
2022/07/25 04:08:11;;;;;;;6.00;3.20;;;22.10;99.90;22.60;100511;;;;599095;240;24067;-86
2022/07/25 04:10:39;;;;;;;7.93;2.37;;;23.00;99.90;23.40;100513;;;;599033;240;24017;-86
2022/07/25 04:13:08;;;;;;;2.30;2.20;;;24.80;99.90;24.20;100513;;;;599521;240;23031;-84
2022/07/25 04:15:37;;;;;;;2.00;1.90;;;25.60;99.90;25.00;100514;;;;599098;240;24043;-85
2022/07/25 04:18:04;;;;;;;2.47;2.27;;;25.60;99.90;25.90;100509;;;;598983;240;23037;-84
2022/07/25 04:20:32;;;;;;;2.40;2.20;;;26.50;99.90;26.70;100509;;;;589867;240;23040;-85
2022/07/25 04:23:00;;;;;;;1.90;1.67;;;27.30;99.90;27.30;100505;;;;600387;238;23039;-84
2022/07/25 04:25:32;;;;;;;4.37;2.17;;;28.00;98.00;27.00;100504;;;;600262;239;23098;-86
2022/07/25 04:27:57;;;;;;;1.83;1.70;;;27.40;94.70;26.20;100510;;;;599607;238;23026;-85
2022/07/25 04:30:26;;;;;;;2.43;1.90;;;26.70;94.90;25.60;100503;;;;599688;239;24083;-86
2022/07/25 04:32:53;;;;;;;7.43;1.97;;;26.60;94.80;25.00;100502;;;;599631;239;23057;-86
2022/07/25 04:35:21;;;;;;;8.93;2.87;;;26.00;95.50;24.60;100504;;;;599536;239;23055;-86
2022/07/25 04:37:49;;;;;;;3.30;2.20;;;25.50;96.30;24.20;100500;;;;590339;240;24012;-86
2022/07/25 04:40:17;;;;;;;2.10;2.00;;;25.00;97.20;23.90;100496;;;;599472;239;23992;-85
2022/07/25 04:42:49;;;;;;;2.77;2.63;;;24.60;98.10;23.50;100498;;;;590282;240;24045;-85
2022/07/25 04:45:17;;;;;;;2.70;2.50;;;24.20;98.80;23.20;100508;;;;590372;240;24024;-85
2022/07/25 04:47:41;;;;;;;4.27;2.40;;;23.90;99.50;22.90;100510;;;;587568;240;24023;-84
2022/07/25 04:50:13;;;;;;;6.07;2.43;;;23.20;99.90;22.60;100517;;;;600295;239;23998;-87
2022/07/25 04:52:38;;;;;;;4.67;2.57;;;23.20;99.90;22.30;100506;;;;599502;239;24006;-85
2022/07/25 04:55:06;;;;;;;3.23;2.97;;;22.90;99.90;22.10;100505;;;;600035;239;24025;-85
2022/07/25 04:57:36;;;;;;;2.73;2.23;;;22.70;99.90;22.00;100503;;;;587786;240;24068;-85
2022/07/25 05:00:01;;;;;;;2.40;2.20;;;22.50;99.90;21.80;100490;;;;598948;239;24075;-85
2022/07/25 05:02:29;;;;;;;4.50;2.73;;;22.30;99.90;21.70;100490;;;;590247;240;23050;-85
2022/07/25 05:04:57;;;;;;;3.07;2.63;;;22.20;99.90;21.70;100485;;;;599141;240;24030;-86
2022/07/25 05:07:26;;;;;;;3.27;2.77;;;22.10;99.90;21.80;100487;;;;599150;240;24048;-85
2022/07/25 05:09:57;;;;;;;3.10;2.50;;;22.10;99.90;21.90;100481;;;;599023;240;24012;-86
2022/07/25 05:12:22;;;;;;;2.57;2.40;;;22.30;99.90;22.10;100487;;;;586259;240;24042;-87
2022/07/25 05:14:50;;;;;;;6.27;2.83;;;22.50;99.90;22.40;100485;;;;599046;240;24059;-88
2022/07/25 05:17:18;;;;;;;3.00;2.80;;;22.80;99.90;23.10;100485;;;;598952;240;24104;-86
2022/07/25 05:19:45;;;;;;;3.60;2.50;;;23.40;99.90;24.00;100487;;;;593914;240;34834;-86
2022/07/25 05:22:13;;;;;;;11.13;3.30;;;24.30;99.90;25.10;100485;;;;598960;240;24094;-84
2022/07/25 05:24:41;;;;;;;13.17;2.97;;;25.30;99.90;25.90;100487;;;;598927;240;23039;-87
2022/07/25 05:27:12;;;;;;;5.57;2.90;;;26.30;99.90;27.00;100492;;;;599183;240;24047;-87
2022/07/25 05:29:38;;;;;;;31.10;4.30;;;27.20;98.70;28.70;100491;;;;598775;240;23074;-86
2022/07/25 05:32:05;;;;;;;5.23;2.43;;;28.90;96.00;30.40;100489;;;;599160;240;23047;-85
2022/07/25 05:34:37;;;;;;;3.53;2.20;;;30.70;91.90;31.90;100484;;;;595212;238;34787;-86
2022/07/25 05:37:02;;;;;;;8.30;2.15;;;32.20;84.20;32.80;100485;;;;585692;239;34753;-85
2022/07/25 05:39:30;;;;;;;2.30;2.03;;;33.20;77.00;33.70;100488;;;;594678;239;34877;-85
2022/07/25 05:42:01;;;;;;;7.65;2.37;;;34.10;71.50;34.70;100494;;;;599915;239;23023;-85
2022/07/25 05:44:25;;;;;;;9.60;2.47;;;35.20;67.70;35.70;100486;;;;586756;240;24070;-85
2022/07/25 05:46:54;;;;;;;12.60;2.60;;;37.30;59.30;36.80;100491;;;;600026;239;23063;-85
2022/07/25 05:49:22;;;;;;;19.42;3.12;;;37.20;59.20;37.90;100495;;;;600206;239;23030;-86
2022/07/25 05:51:53;;;;;;;8.65;2.17;;;38.30;57.00;38.70;100486;;;;600111;239;23018;-85
2022/07/25 05:54:18;;;;;;;15.82;2.58;;;39.20;54.40;39.30;100492;;;;599770;239;23028;-85
2022/07/25 05:56:46;;;;;;;2.35;1.90;;;39.80;53.50;39.60;100481;;;;599676;239;23031;-85
2022/07/25 06:12:18;;;;;;;1.80;1.70;;;42.30;46.30;41.70;100485;;;;617303;228;33591;-85
2022/07/25 06:14:44;;;;;;;3.00;2.12;;;42.40;45.60;42.20;100487;;;;606684;237;23032;-85
2022/07/25 06:17:12;;;;;;;1.98;1.67;;;43.40;44.70;42.90;100484;;;;606766;236;23046;-84
2022/07/25 06:19:40;;;;;;;2.22;1.92;;;43.40;44.60;43.60;100490;;;;606619;236;23058;-84
2022/07/25 06:22:08;;;;;;;5.12;1.70;;;43.90;43.60;43.90;100494;;;;606579;233;23136;-85
2022/07/25 06:24:37;;;;;;;2.45;1.73;;;44.80;42.70;44.30;100488;;;;606561;236;23054;-84
2022/07/25 06:27:04;;;;;;;2.83;2.12;;;44.70;42.60;44.90;100488;;;;606493;233;23064;-85
2022/07/25 06:29:33;;;;;;;8.98;2.37;;;45.40;41.80;44.90;100484;;;;606114;237;24102;-85
2022/07/25 06:32:01;;;;;;;2.08;1.90;;;45.40;42.50;45.30;100495;;;;606203;236;23061;-85
2022/07/25 06:34:29;;;;;;;4.50;2.22;;;45.70;41.60;45.60;100493;;;;606209;236;23063;-87
2022/07/25 06:36:57;;;;;;;2.17;2.00;;;45.90;41.00;45.60;100499;;;;605817;236;23048;-85
2022/07/25 06:39:26;;;;;;;4.10;2.00;;;45.80;40.70;45.40;100494;;;;605758;236;23117;-84
2022/07/25 06:41:53;;;;;;;1.85;1.70;;;45.90;40.70;45.50;100477;;;;605849;237;23070;-85
2022/07/25 06:44:21;;;;;;;5.50;1.77;;;45.80;40.60;46.00;100477;;;;605832;236;23070;-84
2022/07/25 06:46:50;;;;;;;4.28;1.50;;;46.70;39.90;46.50;100474;;;;606049;233;23086;-86
2022/07/25 06:49:18;;;;;;;1.95;1.77;;;46.70;40.50;47.20;100470;;;;605952;233;23059;-87
2022/07/25 06:51:49;;;;;;;4.32;1.80;;;47.40;39.20;47.90;100459;;;;606045;236;23060;-85
2022/07/25 06:54:14;;;;;;;2.12;2.03;;;48.00;38.70;48.00;100474;;;;605765;237;24064;-86
2022/07/25 06:56:42;;;;;;;2.15;1.90;;;48.20;37.80;47.90;100463;;;;605821;237;24116;-85
2022/07/25 06:59:10;;;;;;;7.40;2.10;;;48.10;37.70;48.20;100466;;;;605940;237;23091;-86
2022/07/25 07:01:38;;;;;;;2.62;2.20;;;48.40;37.60;48.60;100467;;;;605871;236;23052;-85
2022/07/25 07:04:06;;;;;;;2.28;2.08;;;48.70;37.30;49.20;100466;;;;608766;236;23063;-85
2022/07/25 07:06:35;;;;;;;3.05;2.03;;;49.30;36.80;49.70;100468;;;;609148;230;23051;-86
2022/07/25 07:09:02;;;;;;;1.90;1.80;;;49.70;35.90;50.00;100470;;;;608676;234;23064;-85
2022/07/25 07:11:29;;;;;;;4.28;2.00;;;50.20;35.40;50.20;100464;;;;608699;234;23079;-84
2022/07/25 07:13:57;;;;;;;2.30;2.10;;;50.50;35.00;50.50;100460;;;;608562;234;23064;-86
2022/07/25 07:16:26;;;;;;;3.62;2.65;;;50.70;34.60;50.30;100454;;;;608485;234;23071;-85
2022/07/25 07:18:54;;;;;;;2.10;1.73;;;50.70;34.60;50.00;100458;;;;608662;231;24081;-84
2022/07/25 07:21:25;;;;;;;2.33;2.12;;;50.50;34.80;50.20;100457;;;;608701;234;23067;-83
2022/07/25 07:23:52;;;;;;;4.40;1.80;;;50.50;34.70;49.90;100453;;;;610433;230;23020;-84
2022/07/25 07:26:23;;;;;;;4.45;2.15;;;50.30;34.40;49.50;100449;;;;609950;233;23078;-85
2022/07/25 07:28:48;;;;;;;2.95;2.10;;;49.90;34.30;49.80;100447;;;;609597;235;23028;-86
2022/07/25 07:31:20;;;;;;;2.20;2.03;;;49.90;34.40;50.40;100447;;;;609673;230;23031;-85
2022/07/25 07:33:48;;;;;;;2.25;2.10;;;50.50;34.10;50.90;100448;;;;608512;236;23021;-85
2022/07/25 07:36:12;;;;;;;3.53;2.10;;;50.90;33.40;50.90;100449;;;;608812;236;23031;-85
2022/07/25 07:38:40;;;;;;;3.78;2.50;;;51.10;33.30;51.00;100445;;;;609310;233;23074;-85
2022/07/25 07:41:08;;;;;;;7.15;2.60;;;51.30;33.40;51.10;100449;;;;608982;232;23050;-84
2022/07/25 07:43:36;;;;;;;2.50;2.05;;;51.20;33.30;51.50;100451;;;;609362;234;23042;-86
2022/07/25 07:46:04;;;;;;;3.05;2.03;;;51.70;33.20;51.80;100441;;;;610715;230;23052;-85
2022/07/25 07:48:32;;;;;;;3.33;2.00;;;51.90;32.70;51.70;100446;;;;610576;233;23043;-84
2022/07/25 07:51:04;;;;;;;3.58;2.83;;;52.00;31.90;51.10;100443;;;;610838;231;23060;-84
2022/07/25 07:56:13;;;;;;;4.43;2.20;;;51.10;32.80;50.40;100437;;;;610142;236;23062;-82
2022/07/25 07:58:45;;;;;;;18.12;3.20;;;50.80;33.00;50.40;100436;;;;609373;231;23078;-85
2022/07/25 08:01:09;;;;;;;3.03;2.17;;;50.60;33.40;50.70;100435;;;;607862;236;23028;-85
2022/07/25 08:03:37;;;;;;;4.80;2.15;;;50.80;33.30;51.30;100442;;;;608507;234;23086;-84
2022/07/25 08:06:08;;;;;;;3.50;2.20;;;51.20;33.20;52.00;100434;;;;603188;230;36708;-86
2022/07/25 08:08:34;;;;;;;4.87;2.00;;;52.30;31.90;52.30;100434;;;;607976;236;23062;-86
2022/07/25 08:11:02;;;;;;;5.37;2.30;;;52.30;31.80;52.50;100438;;;;608507;234;23083;-86
2022/07/25 08:13:32;;;;;;;3.72;2.40;;;52.70;31.70;52.20;100427;;;;608440;231;23079;-85
2022/07/25 08:15:57;;;;;;;13.00;3.45;;;52.50;31.70;52.50;100431;;;;608115;236;24105;-85
2022/07/25 08:18:30;;;;;;;6.53;2.80;;;52.80;31.70;52.70;100428;;;;608328;231;23017;-86
2022/07/25 08:20:54;;;;;;;19.27;3.80;;;52.80;31.60;53.00;100433;;;;607862;236;23004;-85
2022/07/25 08:23:24;;;;;;;10.30;3.10;;;53.10;31.20;53.40;100430;;;;608450;234;23091;-86
2022/07/25 08:25:50;;;;;;;2.40;2.30;;;53.90;31.00;53.80;100428;;;;608390;234;23037;-86
2022/07/25 08:28:18;;;;;;;3.80;2.70;;;53.80;30.90;54.20;100419;;;;608559;234;23072;-85
2022/07/25 08:30:46;;;;;;;18.15;3.78;;;54.30;30.80;54.70;100422;;;;608289;236;23063;-86
2022/07/25 08:33:17;;;;;;;91.07;8.80;;;55.20;29.90;54.90;100422;;;;608934;231;23068;-86
2022/07/25 08:35:50;;;;;;;140.77;14.25;;;55.10;29.80;54.80;100429;;;;609902;230;23043;-86
2022/07/25 08:38:20;;;;;;;32.38;5.40;;;55.20;29.90;54.70;100436;;;;609849;235;23027;-85
2022/07/25 08:40:47;;;;;;;48.55;6.62;;;55.10;29.80;54.50;100433;;;;608672;235;23059;-85
2022/07/25 08:43:12;;;;;;;8.75;3.53;;;55.10;29.90;54.10;100432;;;;608655;230;23029;-84
2022/07/25 08:45:43;;;;;;;11.23;3.60;;;54.70;29.90;54.10;100428;;;;609042;233;24111;-87
2022/07/25 08:48:11;;;;;;;54.70;7.22;;;54.50;30.10;53.80;100430;;;;609093;236;23044;-85
2022/07/25 08:50:42;;;;;;;37.72;6.00;;;54.30;30.20;53.80;100436;;;;609211;233;24076;-85
2022/07/25 08:53:06;;;;;;;5.65;3.10;;;54.20;30.20;54.00;100430;;;;608251;236;23032;-85
2022/07/25 08:55:38;;;;;;;8.45;3.30;;;54.30;29.70;53.90;100433;;;;608880;236;23034;-86
2022/07/25 08:58:02;;;;;;;10.68;3.17;;;54.50;29.90;53.90;100430;;;;608173;236;23086;-85
2022/07/25 09:00:30;;;;;;;6.57;2.90;;;54.60;29.90;53.80;100428;;;;608662;234;23017;-85
2022/07/25 09:02:59;;;;;;;5.62;2.97;;;54.60;29.50;53.80;100424;;;;608868;230;23025;-84
2022/07/25 09:05:30;;;;;;;15.85;4.00;;;54.60;29.50;54.10;100430;;;;608461;236;23040;-85
2022/07/25 09:07:55;;;;;;;6.87;2.87;;;54.80;29.30;54.10;100427;;;;608479;236;23048;-86
2022/07/25 09:10:22;;;;;;;3.75;2.95;;;54.90;28.70;53.70;100425;;;;608725;231;23045;-85
2022/07/25 09:12:51;;;;;;;6.82;3.28;;;54.90;28.70;53.70;100424;;;;608405;236;23040;-85
2022/07/25 09:15:33;;;;;;;5.27;3.47;;;54.80;29.70;54.20;100415;;;;599659;236;45638;-85
2022/07/25 09:18:04;;;;;;;3.42;2.97;;;55.20;29.40;54.30;100421;;;;608351;234;23066;-85
2022/07/25 09:20:49;;;;;;;4.10;3.20;;;55.40;29.20;54.60;100419;;;;608345;236;23079;-84
2022/07/25 09:23:38;;;;;;;3.95;3.10;;;55.70;29.00;55.10;100413;;;;609124;234;23023;-85
2022/07/25 09:26:12;;;;;;;10.85;3.72;;;56.00;29.20;55.50;100414;;;;608036;231;23012;-86
2022/07/25 09:28:48;;;;;;;5.82;3.08;;;56.50;28.70;55.20;100418;;;;608645;234;23016;-85
2022/07/25 09:31:17;;;;;;;3.40;3.00;;;56.50;28.00;54.20;100409;;;;592950;239;23107;-86
2022/07/25 09:33:50;;;;;;;3.90;2.75;;;56.00;28.10;53.50;100404;;;;581701;241;23097;-86
2022/07/25 09:36:18;;;;;;;7.45;3.08;;;55.30;28.50;53.50;100403;;;;582129;244;23103;-85
2022/07/25 09:38:58;;;;;;;3.92;3.35;;;54.90;29.10;54.00;100401;;;;580856;245;23140;-86
2022/07/25 09:41:23;;;;;;;2.87;2.67;;;55.20;29.30;54.30;100394;;;;581870;241;23061;-85
2022/07/25 09:43:53;;;;;;;17.48;3.53;;;55.50;28.60;53.70;100391;;;;581297;246;24125;-85
2022/07/25 09:46:19;;;;;;;7.00;2.97;;;55.40;28.20;52.40;100402;;;;594510;236;23117;-85
2022/07/25 09:48:46;;;;;;;3.70;2.97;;;54.50;28.70;52.40;100397;;;;583054;245;23111;-85
2022/07/25 09:51:14;;;;;;;3.37;2.80;;;54.10;29.30;53.10;100394;;;;582677;245;23134;-85
2022/07/25 09:53:42;;;;;;;2.92;2.83;;;54.30;29.60;53.70;100396;;;;594258;236;23092;-85
2022/07/25 09:56:10;;;;;;;5.20;2.30;;;54.90;29.70;54.70;100392;;;;583157;240;23083;-85
2022/07/25 09:58:38;;;;;;;7.57;3.53;;;55.80;29.30;55.20;100386;;;;594051;236;23036;-85
2022/07/25 10:01:07;;;;;;;4.20;3.90;;;56.60;28.00;55.00;100385;;;;594043;236;23058;-84
2022/07/25 10:04:11;;;;;;;13.45;3.70;;;56.50;28.00;54.60;100391;;;;593451;239;23053;-85
2022/07/25 10:06:57;;;;;;;5.12;3.05;;;56.40;28.00;53.50;100378;;;;582716;246;23107;-87
2022/07/25 10:09:28;;;;;;;4.30;2.80;;;55.50;28.20;53.60;100375;;;;582413;245;23081;-86
2022/07/25 10:12:07;;;;;;;4.80;2.90;;;55.40;28.70;54.10;100369;;;;582335;241;23135;-84
2022/07/25 10:14:35;;;;;;;7.32;2.72;;;55.60;29.10;54.40;100374;;;;593401;239;23114;-86
2022/07/25 10:17:03;;;;;;;4.62;3.20;;;55.90;28.70;54.30;100371;;;;593160;236;23053;-85
2022/07/25 10:19:46;;;;;;;7.43;3.47;;;56.00;28.10;53.40;100373;;;;580578;245;23138;-85
2022/07/25 10:22:14;;;;;;;9.43;3.70;;;55.50;28.10;52.30;100376;;;;582268;246;23099;-85
2022/07/25 10:24:48;;;;;;;7.03;2.83;;;54.50;28.80;51.90;100386;;;;593187;239;23096;-84
2022/07/25 10:27:34;;;;;;;5.30;3.30;;;53.80;29.40;51.40;100374;;;;581964;246;23079;-85
2022/07/25 10:29:53;;;;;;;6.47;3.10;;;53.40;29.20;50.90;100369;;;;579691;247;23108;-85
2022/07/25 10:32:23;;;;;;;6.57;3.40;;;52.70;29.80;50.30;100365;;;;582090;246;23146;-84
2022/07/25 10:34:52;;;;;;;7.30;3.30;;;51.30;29.80;49.30;100369;;;;582127;240;23080;-84
2022/07/25 10:37:20;;;;;;;9.90;4.85;;;51.20;29.70;47.70;100371;;;;582120;240;23096;-84
2022/07/25 10:39:47;;;;;;;3.25;2.95;;;50.00;30.50;46.40;100372;;;;581915;246;23072;-86
2022/07/25 10:42:18;;;;;;;3.67;3.22;;;48.60;31.50;45.70;100377;;;;593162;239;23088;-86
2022/07/25 10:45:04;;;;;;;3.22;3.03;;;47.50;32.90;45.50;100362;;;;581925;245;23095;-84
2022/07/25 10:47:29;;;;;;;4.18;3.78;;;46.90;33.30;44.90;100357;;;;593039;242;23065;-84
2022/07/25 10:49:57;;;;;;;7.07;3.40;;;46.10;34.10;44.00;100357;;;;593123;239;23079;-85
2022/07/25 10:52:25;;;;;;;3.62;3.33;;;44.90;35.40;43.20;100358;;;;582287;244;23092;-85
2022/07/25 10:54:55;;;;;;;8.75;4.35;;;43.80;36.50;42.30;100351;;;;581956;241;23100;-86
2022/07/25 10:57:26;;;;;;;8.48;3.58;;;42.60;37.50;41.00;100346;;;;583265;244;23122;-85
2022/07/25 10:59:54;;;;;;;3.60;3.17;;;41.30;39.00;40.00;100349;;;;583120;245;23124;-85
2022/07/25 11:02:19;;;;;;;3.45;3.22;;;39.20;41.40;39.10;100341;;;;581191;246;23096;-85
2022/07/25 11:05:00;;;;;;;4.60;3.78;;;39.10;41.30;38.20;100346;;;;593926;239;23059;-84
2022/07/25 11:07:27;;;;;;;3.33;3.15;;;38.30;41.80;36.60;100335;;;;582239;246;23069;-85
2022/07/25 11:10:01;;;;;;;3.72;3.30;;;37.10;42.30;34.90;100332;;;;576223;245;45931;-86
2022/07/25 11:12:26;;;;;;;5.12;3.75;;;35.80;43.80;33.60;100331;;;;582259;246;23076;-84
2022/07/25 11:14:59;;;;;;;7.47;3.70;;;34.50;45.90;33.00;100321;;;;582562;241;24121;-84
2022/07/25 11:17:28;;;;;;;3.47;3.17;;;33.50;47.80;32.70;100306;;;;580876;247;23088;-86
2022/07/25 11:20:04;;;;;;;6.60;3.65;;;33.00;49.60;32.50;100314;;;;593295;242;23063;-84
2022/07/25 11:22:32;;;;;;;12.65;3.67;;;32.60;50.50;32.10;100313;;;;582301;244;23095;-84
2022/07/25 11:25:00;;;;;;;9.68;3.75;;;32.20;50.40;31.60;100309;;;;593453;236;23064;-85
2022/07/25 11:27:31;;;;;;;3.53;3.22;;;31.90;50.80;31.10;100303;;;;593351;239;23060;-83
2022/07/25 11:30:10;;;;;;;4.65;3.70;;;31.40;51.50;30.80;100303;;;;581977;246;23073;-84
2022/07/25 11:32:57;;;;;;;5.10;3.22;;;30.80;52.90;30.60;100290;;;;582621;244;23130;-84